createdAt,value
2019-03-11T00:00:53.786Z,100.00
2019-03-11T00:03:20.096Z,100.00
2019-03-11T00:05:46.408Z,100.00
2019-03-11T00:08:12.727Z,100.00
2019-03-11T00:10:39.042Z,100.00
2019-03-11T00:13:05.350Z,100.00
2019-03-11T00:15:31.665Z,100.00
2019-03-11T00:17:57.987Z,100.00
2019-03-11T00:20:24.290Z,100.00
2019-03-11T00:22:50.605Z,100.00
2019-03-11T00:25:16.914Z,100.00
2019-03-11T00:27:43.228Z,100.00
2019-03-11T00:30:09.545Z,100.00
2019-03-11T00:32:35.897Z,100.00
2019-03-11T00:35:02.208Z,100.00
2019-03-11T00:37:28.514Z,100.00
2019-03-11T00:39:54.829Z,100.00
2019-03-11T00:42:21.132Z,100.00
2019-03-11T00:44:47.447Z,100.00
2019-03-11T00:47:13.759Z,100.00
2019-03-11T00:49:40.071Z,100.00
2019-03-11T00:52:06.435Z,100.00
2019-03-11T00:54:32.780Z,100.00
2019-03-11T00:56:59.013Z,100.00
2019-03-11T00:59:25.329Z,100.00
2019-03-11T01:01:51.639Z,100.00
2019-03-11T01:04:17.958Z,100.00
2019-03-11T01:06:44.274Z,100.00
2019-03-11T01:09:10.586Z,100.00
2019-03-11T01:11:36.903Z,100.00
2019-03-11T01:14:03.221Z,100.00
2019-03-11T01:16:29.530Z,100.00
2019-03-11T01:18:55.843Z,100.00
2019-03-11T01:21:22.153Z,100.00
2019-03-11T01:23:48.470Z,100.00
2019-03-11T01:26:14.785Z,100.00
2019-03-11T01:28:41.099Z,100.00
2019-03-11T01:31:07.410Z,100.00
2019-03-11T01:33:33.722Z,100.00
2019-03-11T01:36:00.074Z,100.00
2019-03-11T01:38:26.359Z,100.00
2019-03-11T01:40:52.669Z,100.00
2019-03-11T01:43:18.982Z,100.00
2019-03-11T01:45:45.304Z,100.00
2019-03-11T01:48:11.626Z,100.00
2019-03-11T01:50:37.938Z,100.00
2019-03-11T01:53:04.254Z,100.00
2019-03-11T01:55:30.571Z,100.00
2019-03-11T01:57:56.878Z,100.00
2019-03-11T02:00:23.180Z,100.00
2019-03-11T02:02:49.495Z,100.00
2019-03-11T02:05:15.806Z,100.00
2019-03-11T02:07:42.122Z,100.00
2019-03-11T02:10:08.428Z,100.00
2019-03-11T02:12:34.742Z,100.00
2019-03-11T02:15:01.062Z,100.00
2019-03-11T02:17:27.477Z,100.00
2019-03-11T02:19:53.786Z,100.00
2019-03-11T02:22:20.100Z,100.00
2019-03-11T02:24:46.405Z,100.00
2019-03-11T02:27:12.733Z,100.00
2019-03-11T02:29:39.046Z,100.00
2019-03-11T02:32:05.345Z,100.00
2019-03-11T02:34:31.665Z,100.00
2019-03-11T02:36:57.997Z,100.00
2019-03-11T02:39:24.307Z,100.00
2019-03-11T02:41:50.612Z,100.00
2019-03-11T02:44:16.926Z,100.00
2019-03-11T02:46:43.237Z,100.00
2019-03-11T02:49:09.556Z,100.00
2019-03-11T02:51:35.875Z,100.00
2019-03-11T02:54:02.200Z,100.00
2019-03-11T02:56:28.549Z,100.00
2019-03-11T02:58:54.823Z,100.00
2019-03-11T03:01:21.139Z,100.00
2019-03-11T03:03:47.444Z,100.00
2019-03-11T03:06:13.754Z,100.00
2019-03-11T03:08:40.068Z,100.00
2019-03-11T03:11:06.375Z,100.00
2019-03-11T03:13:32.685Z,100.00
2019-03-11T03:15:59.007Z,100.00
2019-03-11T03:18:25.309Z,100.00
2019-03-11T03:20:51.631Z,100.00
2019-03-11T03:23:17.944Z,100.00
2019-03-11T03:25:44.249Z,100.00
2019-03-11T03:28:10.559Z,100.00
2019-03-11T03:30:36.893Z,100.00
2019-03-11T03:33:03.207Z,100.00
2019-03-11T03:35:29.505Z,100.00
2019-03-11T03:37:55.833Z,100.00
2019-03-11T03:40:22.134Z,100.00
2019-03-11T03:42:48.477Z,100.00
2019-03-11T03:45:14.756Z,100.00
2019-03-11T03:47:41.066Z,100.00
2019-03-11T03:50:07.386Z,100.00
2019-03-11T03:52:33.701Z,100.00
2019-03-11T03:55:00.010Z,100.00
2019-03-11T03:57:26.324Z,100.00
2019-03-11T03:59:52.635Z,100.00
2019-03-11T04:02:18.942Z,100.00
2019-03-11T04:04:45.248Z,100.00
2019-03-11T04:07:11.561Z,100.00
2019-03-11T04:09:37.873Z,100.00
2019-03-11T04:12:04.199Z,100.00
2019-03-11T04:14:30.545Z,100.00
2019-03-11T04:16:56.874Z,100.00
2019-03-11T04:19:23.198Z,100.00
2019-03-11T04:21:49.523Z,100.00
2019-03-11T04:24:15.836Z,100.00
2019-03-11T04:26:42.148Z,100.00
2019-03-11T04:29:08.451Z,100.00
2019-03-11T04:31:34.769Z,100.00
2019-03-11T04:34:01.078Z,100.00
2019-03-11T04:36:27.391Z,100.00
2019-03-11T04:38:53.695Z,100.00
2019-03-11T04:41:20.035Z,100.00
2019-03-11T04:43:46.342Z,100.00
2019-03-11T04:46:12.665Z,100.00
2019-03-11T04:48:38.980Z,100.00
2019-03-11T04:51:05.285Z,100.00
2019-03-11T04:53:31.613Z,100.00
2019-03-11T04:55:57.918Z,100.00
2019-03-11T04:58:24.235Z,100.00
2019-03-11T05:00:50.541Z,100.00
2019-03-11T05:03:16.858Z,100.00
2019-03-11T05:05:43.168Z,100.00
2019-03-11T05:08:09.493Z,100.00
2019-03-11T05:10:35.810Z,100.00
2019-03-11T05:13:02.120Z,100.00
2019-03-11T05:15:28.438Z,100.00
2019-03-11T05:17:54.747Z,100.00
2019-03-11T05:20:21.070Z,100.00
2019-03-11T05:22:47.404Z,100.00
2019-03-11T05:25:13.715Z,100.00
2019-03-11T05:27:40.031Z,100.00
2019-03-11T05:30:08.093Z,100.00
2019-03-11T05:32:33.109Z,100.00
2019-03-11T05:34:59.532Z,100.00
2019-03-11T05:37:25.814Z,100.00
2019-03-11T05:39:52.131Z,100.00
2019-03-11T05:42:18.449Z,100.00
2019-03-11T05:44:44.776Z,100.00
2019-03-11T05:47:11.121Z,100.00
2019-03-11T05:49:37.408Z,100.00
2019-03-11T05:52:03.717Z,100.00
2019-03-11T05:54:30.032Z,100.00
2019-03-11T05:56:58.967Z,100.00
2019-03-11T05:59:22.673Z,91.39
2019-03-11T06:01:48.989Z,88.61
2019-03-11T06:04:15.532Z,87.09
2019-03-11T06:06:41.846Z,86.11
2019-03-11T06:09:08.158Z,86.01
2019-03-11T06:11:34.498Z,86.15
2019-03-11T06:14:00.810Z,84.49
2019-03-11T06:16:27.135Z,82.44
2019-03-11T06:18:53.484Z,82.00
2019-03-11T06:21:19.825Z,85.11
2019-03-11T06:23:46.149Z,85.24
2019-03-11T06:26:12.423Z,86.35
2019-03-11T06:28:38.768Z,85.39
2019-03-11T06:31:05.057Z,84.53
2019-03-11T06:33:31.372Z,85.42
2019-03-11T06:35:57.742Z,84.13
2019-03-11T06:38:24.058Z,82.16
2019-03-11T06:40:50.526Z,81.92
2019-03-11T06:43:16.795Z,82.96
2019-03-11T06:45:43.109Z,82.65
2019-03-11T06:50:54.725Z,83.14
2019-03-11T06:53:21.044Z,82.36
2019-03-11T06:55:47.609Z,81.52
2019-03-11T06:58:13.957Z,82.87
2019-03-11T07:00:40.241Z,82.82
2019-03-11T07:03:06.549Z,81.97
2019-03-11T07:05:33.696Z,80.90
2019-03-11T07:08:00.065Z,79.08
2019-03-11T07:10:28.950Z,80.14
2019-03-11T07:12:55.256Z,79.37
2019-03-11T07:15:21.581Z,80.31
2019-03-11T07:17:47.897Z,78.24
2019-03-11T07:20:14.210Z,79.80
2019-03-11T07:22:40.561Z,79.25
2019-03-11T07:25:06.851Z,79.74
2019-03-11T07:27:33.173Z,79.92
2019-03-11T07:29:59.475Z,79.41
2019-03-11T07:32:25.828Z,79.45
2019-03-11T07:34:52.153Z,77.84
2019-03-11T07:37:18.538Z,76.60
2019-03-11T07:39:44.769Z,74.96
2019-03-11T07:42:11.357Z,75.02
2019-03-11T07:44:37.830Z,74.06
2019-03-11T07:47:13.308Z,73.63
2019-03-11T07:49:39.462Z,73.20
2019-03-11T07:52:05.822Z,71.51
2019-03-11T07:54:35.798Z,71.56
2019-03-11T07:56:58.446Z,73.05
2019-03-11T07:59:24.754Z,71.15
2019-03-11T08:01:51.066Z,71.31
2019-03-11T08:04:17.418Z,71.01
2019-03-11T08:06:43.740Z,72.25
2019-03-11T08:09:10.075Z,71.44
2019-03-11T08:11:36.402Z,70.43
2019-03-11T08:14:02.719Z,68.70
2019-03-11T08:16:29.535Z,68.46
2019-03-11T08:18:55.841Z,66.03
2019-03-11T08:21:22.134Z,65.73
2019-03-11T08:23:48.446Z,67.58
2019-03-11T08:26:14.753Z,67.41
2019-03-11T08:28:41.065Z,69.68
2019-03-11T08:31:07.387Z,68.90
2019-03-11T08:33:33.692Z,63.28
2019-03-11T08:36:00.010Z,66.64
2019-03-11T08:38:26.329Z,66.74
2019-03-11T08:40:52.655Z,64.98
2019-03-11T08:43:19.058Z,66.02
2019-03-11T08:45:45.348Z,66.92
2019-03-11T08:48:11.658Z,67.24
2019-03-11T08:50:38.014Z,65.33
2019-03-11T08:53:04.290Z,64.54
2019-03-11T08:55:30.616Z,64.31
2019-03-11T08:57:57.212Z,61.63
2019-03-11T09:00:23.521Z,60.53
2019-03-11T09:02:49.832Z,60.06
2019-03-11T09:05:16.211Z,59.15
2019-03-11T09:07:42.522Z,59.49
2019-03-11T09:10:08.854Z,58.78
2019-03-11T09:12:41.311Z,57.29
2019-03-11T09:15:07.638Z,58.99
2019-03-11T09:17:34.802Z,56.30
2019-03-11T09:20:00.349Z,54.73
2019-03-11T09:22:26.652Z,55.54
2019-03-11T09:24:52.985Z,55.64
2019-03-11T09:27:19.337Z,54.52
2019-03-11T09:29:45.659Z,54.58
2019-03-11T09:32:11.965Z,54.09
2019-03-11T09:34:38.294Z,53.90
2019-03-11T09:37:04.633Z,52.18
2019-03-11T09:39:30.957Z,50.61
2019-03-11T09:41:57.270Z,50.93
2019-03-11T09:44:23.602Z,50.12
2019-03-11T09:46:49.941Z,50.45
2019-03-11T09:49:16.282Z,50.23
2019-03-11T09:51:42.615Z,49.36
2019-03-11T09:54:08.942Z,48.91
2019-03-11T09:56:42.958Z,48.65
2019-03-11T09:59:01.565Z,48.95
2019-03-11T10:01:27.883Z,49.47
2019-03-11T10:03:54.190Z,49.78
2019-03-11T10:06:20.549Z,49.94
2019-03-11T10:08:46.857Z,49.29
2019-03-11T10:11:13.165Z,49.95
2019-03-11T10:13:39.495Z,50.06
2019-03-11T10:16:05.945Z,50.83
2019-03-11T10:18:32.156Z,50.33
2019-03-11T10:20:58.537Z,49.32
2019-03-11T10:23:32.023Z,49.91
2019-03-11T10:25:51.310Z,50.83
2019-03-11T10:28:17.640Z,50.87
2019-03-11T10:30:43.949Z,50.70
2019-03-11T10:33:10.286Z,50.39
2019-03-11T10:35:36.620Z,50.67
2019-03-11T10:38:02.919Z,51.40
2019-03-11T10:40:29.232Z,51.13
2019-03-11T10:42:55.554Z,51.05
2019-03-11T10:45:30.534Z,51.09
2019-03-11T10:47:48.618Z,52.01
2019-03-11T10:50:14.929Z,51.48
2019-03-11T10:52:41.258Z,51.87
2019-03-11T10:55:07.570Z,51.52
2019-03-11T10:57:33.910Z,50.81
2019-03-11T11:00:00.391Z,51.51
2019-03-11T11:02:26.626Z,51.81
2019-03-11T11:04:53.005Z,51.16
2019-03-11T11:07:19.346Z,50.71
2019-03-11T11:09:45.625Z,50.48
2019-03-11T11:12:11.967Z,50.68
2019-03-11T11:14:38.317Z,50.28
2019-03-11T11:17:04.587Z,50.88
2019-03-11T11:19:30.913Z,51.22
2019-03-11T11:21:57.220Z,50.97
2019-03-11T11:24:23.532Z,54.63
2019-03-11T11:26:49.854Z,54.78
2019-03-11T11:29:16.156Z,54.56
2019-03-11T11:31:42.476Z,53.88
2019-03-11T11:34:08.787Z,53.87
2019-03-11T11:36:35.097Z,53.99
2019-03-11T11:39:01.405Z,53.73
2019-03-11T11:41:27.729Z,52.88
2019-03-11T11:43:54.047Z,52.53
2019-03-11T11:46:20.358Z,52.56
2019-03-11T11:48:46.681Z,51.95
2019-03-11T11:51:12.995Z,51.54
2019-03-11T11:53:39.299Z,50.84
2019-03-11T11:56:05.608Z,51.38
2019-03-11T11:58:31.912Z,51.29
2019-03-11T12:00:58.226Z,50.39
2019-03-11T12:03:24.538Z,49.73
2019-03-11T12:05:50.879Z,49.06
2019-03-11T12:08:17.193Z,48.17
2019-03-11T12:10:43.496Z,48.42
2019-03-11T12:13:09.825Z,49.17
2019-03-11T12:15:36.134Z,49.67
2019-03-11T12:18:02.444Z,49.38
2019-03-11T12:20:28.761Z,49.28
2019-03-11T12:22:55.132Z,49.50
2019-03-11T12:25:21.449Z,49.57
2019-03-11T12:27:53.559Z,48.50
2019-03-11T12:30:14.078Z,48.00
2019-03-11T12:32:40.412Z,47.88
2019-03-11T12:35:06.728Z,47.57
2019-03-11T12:37:33.042Z,47.30
2019-03-11T12:39:59.352Z,47.60
2019-03-11T12:42:25.679Z,47.46
2019-03-11T12:44:53.736Z,47.36
2019-03-11T12:47:18.345Z,47.65
2019-03-11T12:49:44.677Z,46.89
2019-03-11T12:52:10.988Z,47.83
2019-03-11T12:54:37.309Z,47.96
2019-03-11T12:57:03.622Z,47.95
2019-03-11T12:59:29.933Z,47.71
2019-03-11T13:01:56.255Z,47.41
2019-03-11T13:04:22.564Z,47.09
2019-03-11T13:06:48.874Z,46.63
2019-03-11T13:09:15.189Z,46.15
2019-03-11T13:11:41.497Z,45.98
2019-03-11T13:14:07.829Z,45.86
2019-03-11T13:16:34.138Z,45.99
2019-03-11T13:19:00.447Z,46.06
2019-03-11T13:21:26.763Z,45.73
2019-03-11T13:23:53.069Z,45.87
2019-03-11T13:26:19.545Z,45.73
2019-03-11T13:28:48.378Z,45.95
2019-03-11T13:31:14.680Z,45.65
2019-03-11T13:33:40.988Z,46.54
2019-03-11T13:36:07.334Z,46.64
2019-03-11T13:38:34.612Z,46.18
2019-03-11T13:40:59.924Z,46.42
2019-03-11T13:43:26.237Z,45.93
2019-03-11T13:45:52.557Z,46.44
2019-03-11T13:48:18.888Z,45.99
2019-03-11T13:50:45.196Z,46.46
2019-03-11T13:53:11.507Z,46.13
2019-03-11T13:55:37.811Z,45.95
2019-03-11T13:58:04.116Z,46.44
2019-03-11T14:00:30.428Z,46.40
2019-03-11T14:02:56.731Z,46.50
2019-03-11T14:05:23.099Z,47.06
2019-03-11T14:07:49.414Z,47.05
2019-03-11T14:10:15.727Z,46.75
2019-03-11T14:12:42.076Z,46.47
2019-03-11T14:15:08.438Z,46.25
2019-03-11T14:17:34.667Z,46.48
2019-03-11T14:20:00.971Z,46.52
2019-03-11T14:22:27.422Z,46.35
2019-03-11T14:24:53.789Z,46.38
2019-03-11T14:27:20.097Z,46.37
2019-03-11T14:29:46.409Z,46.56
2019-03-11T14:32:12.915Z,46.80
2019-03-11T14:34:39.035Z,46.62
2019-03-11T14:37:05.390Z,46.60
2019-03-11T14:39:31.700Z,46.60
2019-03-11T14:41:58.003Z,46.52
2019-03-11T14:44:24.319Z,46.75
2019-03-11T14:46:50.621Z,46.55
2019-03-11T14:49:16.947Z,46.62
2019-03-11T14:51:43.251Z,46.68
2019-03-11T14:54:09.628Z,46.74
2019-03-11T14:56:35.929Z,46.66
2019-03-11T14:59:02.264Z,46.48
2019-03-11T15:01:28.577Z,46.53
2019-03-11T15:03:54.888Z,46.70
2019-03-11T15:06:21.218Z,46.88
2019-03-11T15:08:47.514Z,46.60
2019-03-11T15:11:13.841Z,46.69
2019-03-11T15:13:40.194Z,46.59
2019-03-11T15:16:06.525Z,46.33
2019-03-11T15:18:32.829Z,46.45
2019-03-11T15:20:59.137Z,46.75
2019-03-11T15:23:25.463Z,46.58
2019-03-11T15:25:51.761Z,46.67
2019-03-11T15:28:18.248Z,46.73
2019-03-11T15:30:44.541Z,47.04
2019-03-11T15:33:10.837Z,47.07
2019-03-11T15:35:37.211Z,47.04
2019-03-11T15:38:03.501Z,46.96
2019-03-11T15:40:29.826Z,46.97
2019-03-11T15:42:56.116Z,46.89
2019-03-11T15:45:22.441Z,47.16
2019-03-11T15:47:48.758Z,47.06
2019-03-11T15:50:15.061Z,47.35
2019-03-11T15:52:41.371Z,47.52
2019-03-11T15:55:07.742Z,47.67
2019-03-11T15:57:38.974Z,47.34
2019-03-11T16:00:00.388Z,47.60
2019-03-11T16:02:28.034Z,47.80
2019-03-11T16:04:54.342Z,48.08
2019-03-11T16:07:20.756Z,48.10
2019-03-11T16:09:47.017Z,48.06
2019-03-11T16:12:13.314Z,48.28
2019-03-11T16:14:48.919Z,48.32
2019-03-11T16:17:05.987Z,48.20
2019-03-11T16:19:32.242Z,48.43
2019-03-11T16:21:58.554Z,48.38
2019-03-11T16:24:24.873Z,48.41
2019-03-11T16:26:51.176Z,48.56
2019-03-11T16:29:17.509Z,48.52
2019-03-11T16:31:43.825Z,48.42
2019-03-11T16:34:10.138Z,52.36
2019-03-11T16:36:36.590Z,54.61
2019-03-11T16:39:02.930Z,55.03
2019-03-11T16:41:29.205Z,52.64
2019-03-11T16:43:55.515Z,53.97
2019-03-11T16:46:21.830Z,56.41
2019-03-11T16:48:48.263Z,58.05
2019-03-11T16:51:17.062Z,58.19
2019-03-11T16:53:43.389Z,58.56
2019-03-11T16:56:09.684Z,59.05
2019-03-11T16:58:36.016Z,59.60
2019-03-11T17:01:02.323Z,60.17
2019-03-11T17:03:28.642Z,60.64
2019-03-11T17:05:55.482Z,61.19
2019-03-11T17:08:21.750Z,61.76
2019-03-11T17:10:48.056Z,62.37
2019-03-11T17:13:14.381Z,62.97
2019-03-11T17:15:40.686Z,63.62
2019-03-11T17:18:06.999Z,64.17
2019-03-11T17:20:33.302Z,64.75
2019-03-11T17:25:25.845Z,66.01
2019-03-11T17:27:53.128Z,66.59
2019-03-11T17:30:19.382Z,67.17
2019-03-11T17:32:45.719Z,67.79
2019-03-11T17:35:14.790Z,68.30
2019-03-11T17:37:41.097Z,68.91
2019-03-11T17:40:07.402Z,69.47
2019-03-11T17:42:33.709Z,70.20
2019-03-11T17:45:00.027Z,70.77
2019-03-11T17:47:26.333Z,71.42
2019-03-11T17:49:52.648Z,72.04
2019-03-11T17:52:18.954Z,72.55
2019-03-11T17:54:45.264Z,73.26
2019-03-11T17:57:11.571Z,73.84
2019-03-11T17:59:37.902Z,74.86
2019-03-11T18:02:04.268Z,75.87
2019-03-11T18:04:30.544Z,76.31
2019-03-11T18:06:56.953Z,76.81
2019-03-11T18:09:23.246Z,77.48
2019-03-11T18:11:49.560Z,78.14
2019-03-11T18:14:15.901Z,78.66
2019-03-11T18:16:42.213Z,79.43
2019-03-11T18:19:08.517Z,79.81
2019-03-11T18:21:34.820Z,80.38
2019-03-11T18:24:01.123Z,81.88
2019-03-11T18:26:27.494Z,83.24
2019-03-11T18:28:53.823Z,83.35
2019-03-11T18:31:20.124Z,83.49
2019-03-11T18:33:46.448Z,83.77
2019-03-11T18:36:12.743Z,84.02
2019-03-11T18:38:39.110Z,84.24
2019-03-11T18:41:05.392Z,84.68
2019-03-11T18:43:42.082Z,85.06
2019-03-11T18:45:58.001Z,85.27
2019-03-11T18:48:24.303Z,85.65
2019-03-11T18:50:50.649Z,85.97
2019-03-11T18:53:19.346Z,86.19
2019-03-11T18:55:43.262Z,86.37
2019-03-11T18:58:09.589Z,86.47
2019-03-11T19:00:36.162Z,86.61
2019-03-11T19:03:02.616Z,86.73
2019-03-11T19:05:30.870Z,86.91
2019-03-11T19:07:55.627Z,87.04
2019-03-11T19:10:21.858Z,87.34
2019-03-11T19:12:48.163Z,87.63
2019-03-11T19:15:14.630Z,87.66
2019-03-11T19:17:41.386Z,87.69
2019-03-11T19:20:07.712Z,87.83
2019-03-11T19:22:33.997Z,87.97
2019-03-11T19:25:00.348Z,88.15
2019-03-11T19:27:26.656Z,88.27
2019-03-11T19:29:52.959Z,88.42
2019-03-11T19:32:19.299Z,88.65
2019-03-11T19:34:45.585Z,88.75
2019-03-11T19:37:11.893Z,91.02
2019-03-11T19:39:38.207Z,90.51
2019-03-11T19:42:04.561Z,89.95
2019-03-11T19:44:30.888Z,89.83
2019-03-11T19:46:57.215Z,89.77
2019-03-11T19:49:23.531Z,89.93
2019-03-11T19:51:49.809Z,90.23
2019-03-11T19:54:16.115Z,90.41
2019-03-11T19:56:42.422Z,90.42
2019-03-11T19:59:08.819Z,90.36
2019-03-11T20:01:35.042Z,90.45
2019-03-11T20:04:01.451Z,91.46
2019-03-11T20:06:27.747Z,91.66
2019-03-11T20:08:54.065Z,91.54
2019-03-11T20:11:20.480Z,91.56
2019-03-11T20:13:46.698Z,91.48
2019-03-11T20:16:13.014Z,91.67
2019-03-11T20:18:39.328Z,92.13
2019-03-11T20:21:05.662Z,92.23
2019-03-11T20:23:31.985Z,92.39
2019-03-11T20:25:58.294Z,92.47
2019-03-11T20:28:24.665Z,92.38
2019-03-11T20:30:50.955Z,92.52
2019-03-11T20:33:17.215Z,92.56
2019-03-11T20:35:43.513Z,92.72
2019-03-11T20:38:09.925Z,92.82
2019-03-11T20:40:36.229Z,92.72
2019-03-11T20:43:02.523Z,92.90
2019-03-11T20:45:28.834Z,92.93
2019-03-11T20:47:55.147Z,92.87
2019-03-11T20:50:21.467Z,93.02
2019-03-11T20:52:47.866Z,93.01
2019-03-11T20:55:14.168Z,92.92
2019-03-11T20:57:40.476Z,92.95
2019-03-11T21:00:06.825Z,93.00
2019-03-11T21:02:33.172Z,93.02
2019-03-11T21:04:59.672Z,92.98
2019-03-11T21:07:25.917Z,92.89
2019-03-11T21:09:52.192Z,92.89
2019-03-11T21:12:18.557Z,93.00
2019-03-11T21:14:44.854Z,92.99
2019-03-11T21:17:11.164Z,92.95
2019-03-11T21:19:37.486Z,93.15
2019-03-11T21:22:03.768Z,93.28
2019-03-11T21:24:30.166Z,93.29
2019-03-11T21:26:56.417Z,93.32
2019-03-11T21:29:24.406Z,93.44
2019-03-11T21:31:49.053Z,93.47
2019-03-11T21:34:15.465Z,93.58
2019-03-11T21:36:41.788Z,93.66
2019-03-11T21:39:08.021Z,93.73
2019-03-11T21:41:34.306Z,93.80
2019-03-11T21:44:00.631Z,93.96
2019-03-11T21:46:27.013Z,93.92
2019-03-11T21:48:53.301Z,94.09
2019-03-11T21:51:19.588Z,94.15
2019-03-11T21:53:45.896Z,94.18
2019-03-11T21:56:12.223Z,94.33
2019-03-11T21:58:38.577Z,94.46
2019-03-11T22:01:04.933Z,94.34
2019-03-11T22:03:31.203Z,94.36
2019-03-11T22:05:57.516Z,94.55
2019-03-11T22:08:23.916Z,94.78
2019-03-11T22:10:50.129Z,94.75
2019-03-11T22:13:16.479Z,94.82
2019-03-11T22:15:42.808Z,95.04
2019-03-11T22:18:09.117Z,95.00
2019-03-11T22:20:35.421Z,95.02
2019-03-11T22:23:01.731Z,95.11
2019-03-11T22:25:28.037Z,95.17
2019-03-11T22:27:54.356Z,95.16
2019-03-11T22:30:20.670Z,95.22
2019-03-11T22:32:46.960Z,95.32
2019-03-11T22:35:13.490Z,95.30
2019-03-11T22:37:39.605Z,95.29
2019-03-11T22:40:06.167Z,95.27
2019-03-11T22:42:32.282Z,95.10
2019-03-11T22:44:58.586Z,95.01
2019-03-11T22:47:24.894Z,95.09
2019-03-11T22:49:51.214Z,95.21
2019-03-11T22:52:18.808Z,95.19
2019-03-11T22:54:43.829Z,95.16
2019-03-11T22:57:10.150Z,95.19
2019-03-11T22:59:36.452Z,95.22
2019-03-11T23:02:02.787Z,95.19
2019-03-11T23:04:29.093Z,95.18
2019-03-11T23:06:55.402Z,95.14
2019-03-11T23:09:21.747Z,95.16
2019-03-11T23:11:48.027Z,95.02
2019-03-11T23:14:14.337Z,94.94
2019-03-11T23:16:40.643Z,94.90
2019-03-11T23:19:07.054Z,94.82
2019-03-11T23:21:33.378Z,94.58
2019-03-11T23:23:59.687Z,94.59
2019-03-11T23:26:25.996Z,94.43
2019-03-11T23:28:52.312Z,94.43
2019-03-11T23:31:18.634Z,94.40
2019-03-11T23:33:44.953Z,94.46
2019-03-11T23:36:11.262Z,94.51
2019-03-11T23:38:37.570Z,94.47
2019-03-11T23:41:03.890Z,94.39
2019-03-11T23:43:30.198Z,94.33
2019-03-11T23:45:56.516Z,94.19
2019-03-11T23:48:22.823Z,94.01
2019-03-11T23:50:49.138Z,93.94
2019-03-11T23:53:15.453Z,93.88
2019-03-11T23:55:41.760Z,93.99
2019-03-11T23:58:08.074Z,94.08
